Skip Navigation Links Skip Navigation Links

Current Weather

Morristown Muni, Morristown, N.J.

For information only: do not use for flight planning or navigation.
Latest weather
Observation time Monday, June 21, 2021 7:45 PM EDT
Local time Monday, June 21, 2021 8:57 PM EDT
Flight conditions Visual Meteorological Conditions
Winds
Wind direction South-Southwest (210°)
Wind speed 9 mph
Visibility 10 mi.
Sky condition
Ceiling 25,000 ft. broken clouds
Cloud layer scattered clouds 4,400 ft.
Cloud layer broken clouds 25,000 ft.
Temperature 86°F
Dewpoint 75°F
Altimeter 29.60 in.Hg
Derived measurements
Relative humidity 70%
Heat index 95°F
Density altitude 2672 ft.
METAR KMMU 212345Z 21008KT 10SM SCT044 BKN250 30/24 A2960

Settings

Location code

InnerDrive.Weather 4.0.6770.0 Release CLR 4.0.30319.42000
Copyright ©2018 Inner Drive Technology. All rights reserved. Portions Copyright ©1986-2018 David Braverman.

Find weather

Site navigation


Skip Navigation Links

Place info

Page info

PayPal - The safer, easier way to pay online!

Return home.

Copyright ©2021 Inner Drive Technology. Purveyors of fine, hand-crafted computer software. Page printed 2021-06-22T00:57:59 UTC.